sensor_id;sensor_type;location;lat;lon;timestamp;P1;durP1;ratioP1;P2;durP2;ratioP2
11548;SDS011;61444;59.472;18.306;2023-11-19T00:01:54;3.90;;;2.60;;
11548;SDS011;61444;59.472;18.306;2023-11-19T00:04:05;3.47;;;2.60;;
11548;SDS011;61444;59.472;18.306;2023-11-19T00:06:15;2.30;;;2.00;;
11548;SDS011;61444;59.472;18.306;2023-11-19T00:08:24;5.57;;;2.60;;
11548;SDS011;61444;59.472;18.306;2023-11-19T00:10:36;4.67;;;3.13;;
11548;SDS011;61444;59.472;18.306;2023-11-19T00:12:46;2.20;;;1.83;;
11548;SDS011;61444;59.472;18.306;2023-11-19T00:14:54;2.73;;;2.20;;
11548;SDS011;61444;59.472;18.306;2023-11-19T00:17:04;2.97;;;2.27;;
11548;SDS011;61444;59.472;18.306;2023-11-19T00:19:14;3.70;;;2.33;;
11548;SDS011;61444;59.472;18.306;2023-11-19T00:21:25;2.83;;;2.20;;
11548;SDS011;61444;59.472;18.306;2023-11-19T00:23:37;2.67;;;2.10;;
11548;SDS011;61444;59.472;18.306;2023-11-19T00:25:50;2.77;;;2.10;;
11548;SDS011;61444;59.472;18.306;2023-11-19T00:28:03;4.80;;;2.00;;
11548;SDS011;61444;59.472;18.306;2023-11-19T00:30:13;2.87;;;2.17;;
11548;SDS011;61444;59.472;18.306;2023-11-19T00:32:23;2.50;;;2.23;;
11548;SDS011;61444;59.472;18.306;2023-11-19T00:34:32;3.43;;;2.33;;
11548;SDS011;61444;59.472;18.306;2023-11-19T00:36:41;3.30;;;2.50;;
11548;SDS011;61444;59.472;18.306;2023-11-19T00:38:53;2.70;;;2.20;;
11548;SDS011;61444;59.472;18.306;2023-11-19T00:41:07;2.40;;;2.07;;
11548;SDS011;61444;59.472;18.306;2023-11-19T00:43:18;4.03;;;2.17;;
11548;SDS011;61444;59.472;18.306;2023-11-19T00:45:29;7.40;;;2.40;;
11548;SDS011;61444;59.472;18.306;2023-11-19T00:47:40;2.57;;;2.13;;
11548;SDS011;61444;59.472;18.306;2023-11-19T00:49:50;3.13;;;2.30;;
11548;SDS011;61444;59.472;18.306;2023-11-19T00:51:59;3.13;;;2.20;;
11548;SDS011;61444;59.472;18.306;2023-11-19T00:54:08;3.57;;;2.40;;
11548;SDS011;61444;59.472;18.306;2023-11-19T00:56:19;4.67;;;2.47;;
11548;SDS011;61444;59.472;18.306;2023-11-19T00:58:28;3.17;;;2.30;;
11548;SDS011;61444;59.472;18.306;2023-11-19T01:00:39;3.83;;;2.53;;
11548;SDS011;61444;59.472;18.306;2023-11-19T01:02:49;3.23;;;2.53;;
11548;SDS011;61444;59.472;18.306;2023-11-19T01:04:58;2.73;;;2.17;;
11548;SDS011;61444;59.472;18.306;2023-11-19T01:07:06;3.47;;;2.23;;
11548;SDS011;61444;59.472;18.306;2023-11-19T01:09:20;2.40;;;2.20;;
11548;SDS011;61444;59.472;18.306;2023-11-19T01:11:33;2.73;;;2.20;;
11548;SDS011;61444;59.472;18.306;2023-11-19T01:13:44;2.80;;;2.30;;
11548;SDS011;61444;59.472;18.306;2023-11-19T01:15:53;3.60;;;2.57;;
11548;SDS011;61444;59.472;18.306;2023-11-19T01:18:05;3.00;;;2.20;;
11548;SDS011;61444;59.472;18.306;2023-11-19T01:20:16;3.40;;;2.17;;
11548;SDS011;61444;59.472;18.306;2023-11-19T01:22:27;4.53;;;2.40;;
11548;SDS011;61444;59.472;18.306;2023-11-19T01:24:37;2.70;;;2.13;;
11548;SDS011;61444;59.472;18.306;2023-11-19T01:26:48;2.80;;;1.97;;
11548;SDS011;61444;59.472;18.306;2023-11-19T01:28:58;2.53;;;1.80;;
11548;SDS011;61444;59.472;18.306;2023-11-19T01:31:08;4.90;;;2.33;;
11548;SDS011;61444;59.472;18.306;2023-11-19T01:33:16;2.60;;;2.13;;
11548;SDS011;61444;59.472;18.306;2023-11-19T01:35:25;4.23;;;2.70;;
11548;SDS011;61444;59.472;18.306;2023-11-19T01:37:34;2.33;;;2.13;;
11548;SDS011;61444;59.472;18.306;2023-11-19T01:39:43;2.97;;;2.40;;
11548;SDS011;61444;59.472;18.306;2023-11-19T01:42:06;2.97;;;2.30;;
11548;SDS011;61444;59.472;18.306;2023-11-19T01:44:14;4.17;;;2.33;;
11548;SDS011;61444;59.472;18.306;2023-11-19T01:46:24;2.83;;;2.20;;
11548;SDS011;61444;59.472;18.306;2023-11-19T01:48:34;2.67;;;1.83;;
11548;SDS011;61444;59.472;18.306;2023-11-19T01:50:47;2.67;;;1.93;;
11548;SDS011;61444;59.472;18.306;2023-11-19T01:53:07;2.83;;;2.20;;
11548;SDS011;61444;59.472;18.306;2023-11-19T01:55:17;2.50;;;2.23;;
11548;SDS011;61444;59.472;18.306;2023-11-19T01:57:30;2.90;;;2.20;;
11548;SDS011;61444;59.472;18.306;2023-11-19T01:59:42;3.73;;;2.07;;
11548;SDS011;61444;59.472;18.306;2023-11-19T02:01:51;3.73;;;2.17;;
11548;SDS011;61444;59.472;18.306;2023-11-19T02:04:04;2.63;;;2.10;;
11548;SDS011;61444;59.472;18.306;2023-11-19T02:06:13;2.50;;;1.87;;
11548;SDS011;61444;59.472;18.306;2023-11-19T02:08:22;3.77;;;1.87;;
11548;SDS011;61444;59.472;18.306;2023-11-19T02:10:33;4.20;;;2.30;;
11548;SDS011;61444;59.472;18.306;2023-11-19T02:12:44;2.73;;;2.23;;
11548;SDS011;61444;59.472;18.306;2023-11-19T02:14:53;3.07;;;2.20;;
11548;SDS011;61444;59.472;18.306;2023-11-19T02:17:03;3.10;;;2.33;;
11548;SDS011;61444;59.472;18.306;2023-11-19T02:19:12;2.50;;;1.97;;
11548;SDS011;61444;59.472;18.306;2023-11-19T02:21:20;4.70;;;2.50;;
11548;SDS011;61444;59.472;18.306;2023-11-19T02:23:32;3.00;;;2.20;;
11548;SDS011;61444;59.472;18.306;2023-11-19T02:25:41;2.70;;;2.30;;
11548;SDS011;61444;59.472;18.306;2023-11-19T02:27:59;2.97;;;2.10;;
11548;SDS011;61444;59.472;18.306;2023-11-19T02:30:08;3.10;;;1.93;;
11548;SDS011;61444;59.472;18.306;2023-11-19T02:32:17;3.40;;;2.30;;
11548;SDS011;61444;59.472;18.306;2023-11-19T02:34:26;4.73;;;2.30;;
11548;SDS011;61444;59.472;18.306;2023-11-19T02:36:36;2.33;;;2.00;;
11548;SDS011;61444;59.472;18.306;2023-11-19T02:38:47;2.10;;;1.90;;
11548;SDS011;61444;59.472;18.306;2023-11-19T02:40:58;2.70;;;2.10;;
11548;SDS011;61444;59.472;18.306;2023-11-19T02:43:12;2.10;;;1.80;;
11548;SDS011;61444;59.472;18.306;2023-11-19T02:45:22;2.80;;;2.20;;
11548;SDS011;61444;59.472;18.306;2023-11-19T02:47:38;3.50;;;2.10;;
11548;SDS011;61444;59.472;18.306;2023-11-19T02:49:46;2.27;;;1.93;;
11548;SDS011;61444;59.472;18.306;2023-11-19T02:51:57;3.23;;;2.30;;
11548;SDS011;61444;59.472;18.306;2023-11-19T02:54:06;5.47;;;2.20;;
11548;SDS011;61444;59.472;18.306;2023-11-19T02:56:17;3.03;;;2.30;;
11548;SDS011;61444;59.472;18.306;2023-11-19T02:58:36;2.97;;;2.17;;
11548;SDS011;61444;59.472;18.306;2023-11-19T03:00:46;3.37;;;2.27;;
11548;SDS011;61444;59.472;18.306;2023-11-19T03:02:59;2.83;;;2.23;;
11548;SDS011;61444;59.472;18.306;2023-11-19T03:05:19;4.20;;;2.30;;
11548;SDS011;61444;59.472;18.306;2023-11-19T03:07:29;2.47;;;2.07;;
11548;SDS011;61444;59.472;18.306;2023-11-19T03:09:39;3.00;;;1.90;;
11548;SDS011;61444;59.472;18.306;2023-11-19T03:11:50;3.70;;;2.43;;
11548;SDS011;61444;59.472;18.306;2023-11-19T03:14:01;3.47;;;2.23;;
11548;SDS011;61444;59.472;18.306;2023-11-19T03:16:11;4.50;;;2.23;;
11548;SDS011;61444;59.472;18.306;2023-11-19T03:18:23;2.93;;;1.97;;
11548;SDS011;61444;59.472;18.306;2023-11-19T03:20:32;3.30;;;2.30;;
11548;SDS011;61444;59.472;18.306;2023-11-19T03:22:43;2.53;;;1.80;;
11548;SDS011;61444;59.472;18.306;2023-11-19T03:24:52;2.47;;;2.00;;
11548;SDS011;61444;59.472;18.306;2023-11-19T03:27:02;3.80;;;2.27;;
11548;SDS011;61444;59.472;18.306;2023-11-19T03:29:15;2.53;;;1.90;;
11548;SDS011;61444;59.472;18.306;2023-11-19T03:31:25;2.90;;;2.20;;
11548;SDS011;61444;59.472;18.306;2023-11-19T03:33:35;4.50;;;1.87;;
11548;SDS011;61444;59.472;18.306;2023-11-19T03:35:46;2.93;;;2.00;;
11548;SDS011;61444;59.472;18.306;2023-11-19T03:37:55;2.77;;;1.83;;
11548;SDS011;61444;59.472;18.306;2023-11-19T03:40:04;2.27;;;1.87;;
11548;SDS011;61444;59.472;18.306;2023-11-19T03:42:18;3.57;;;2.00;;
11548;SDS011;61444;59.472;18.306;2023-11-19T03:44:30;3.37;;;1.70;;
11548;SDS011;61444;59.472;18.306;2023-11-19T03:46:41;3.30;;;2.27;;
11548;SDS011;61444;59.472;18.306;2023-11-19T03:48:50;3.60;;;2.20;;
11548;SDS011;61444;59.472;18.306;2023-11-19T03:50:59;2.73;;;1.73;;
11548;SDS011;61444;59.472;18.306;2023-11-19T03:53:09;3.63;;;2.30;;
11548;SDS011;61444;59.472;18.306;2023-11-19T03:55:18;2.70;;;1.97;;
11548;SDS011;61444;59.472;18.306;2023-11-19T03:57:27;2.30;;;1.90;;
11548;SDS011;61444;59.472;18.306;2023-11-19T03:59:41;2.83;;;2.03;;
11548;SDS011;61444;59.472;18.306;2023-11-19T04:01:52;3.67;;;2.20;;
11548;SDS011;61444;59.472;18.306;2023-11-19T04:04:05;2.97;;;2.07;;
11548;SDS011;61444;59.472;18.306;2023-11-19T04:06:16;2.87;;;1.90;;
11548;SDS011;61444;59.472;18.306;2023-11-19T04:08:25;3.23;;;2.20;;
11548;SDS011;61444;59.472;18.306;2023-11-19T04:10:34;3.70;;;2.10;;
11548;SDS011;61444;59.472;18.306;2023-11-19T04:12:43;3.20;;;1.80;;
11548;SDS011;61444;59.472;18.306;2023-11-19T04:14:57;3.30;;;2.00;;
11548;SDS011;61444;59.472;18.306;2023-11-19T04:17:09;2.60;;;2.10;;
11548;SDS011;61444;59.472;18.306;2023-11-19T04:19:21;2.43;;;1.83;;
11548;SDS011;61444;59.472;18.306;2023-11-19T04:21:31;2.73;;;2.00;;
11548;SDS011;61444;59.472;18.306;2023-11-19T04:23:42;2.50;;;2.30;;
11548;SDS011;61444;59.472;18.306;2023-11-19T04:25:52;4.07;;;2.17;;
11548;SDS011;61444;59.472;18.306;2023-11-19T04:28:16;3.27;;;2.30;;
11548;SDS011;61444;59.472;18.306;2023-11-19T04:30:31;2.77;;;2.13;;
11548;SDS011;61444;59.472;18.306;2023-11-19T04:32:40;4.03;;;2.23;;
11548;SDS011;61444;59.472;18.306;2023-11-19T04:34:52;2.53;;;1.67;;
11548;SDS011;61444;59.472;18.306;2023-11-19T04:37:03;2.50;;;1.80;;
11548;SDS011;61444;59.472;18.306;2023-11-19T04:39:16;2.53;;;1.70;;
11548;SDS011;61444;59.472;18.306;2023-11-19T04:41:27;2.10;;;1.50;;
11548;SDS011;61444;59.472;18.306;2023-11-19T04:43:43;1.80;;;1.20;;
11548;SDS011;61444;59.472;18.306;2023-11-19T04:46:00;2.10;;;1.40;;
11548;SDS011;61444;59.472;18.306;2023-11-19T04:48:13;2.07;;;1.37;;
11548;SDS011;61444;59.472;18.306;2023-11-19T04:50:26;4.00;;;1.40;;
11548;SDS011;61444;59.472;18.306;2023-11-19T04:52:37;2.00;;;1.70;;
11548;SDS011;61444;59.472;18.306;2023-11-19T04:54:51;3.33;;;2.20;;
11548;SDS011;61444;59.472;18.306;2023-11-19T04:57:05;2.67;;;1.70;;
11548;SDS011;61444;59.472;18.306;2023-11-19T04:59:16;1.90;;;1.70;;
11548;SDS011;61444;59.472;18.306;2023-11-19T05:01:32;2.40;;;1.80;;
11548;SDS011;61444;59.472;18.306;2023-11-19T05:03:43;3.87;;;1.70;;
11548;SDS011;61444;59.472;18.306;2023-11-19T05:05:56;2.90;;;1.93;;
11548;SDS011;61444;59.472;18.306;2023-11-19T05:08:05;2.13;;;1.63;;
11548;SDS011;61444;59.472;18.306;2023-11-19T05:10:16;2.13;;;1.90;;
11548;SDS011;61444;59.472;18.306;2023-11-19T05:12:26;3.07;;;2.40;;
11548;SDS011;61444;59.472;18.306;2023-11-19T05:14:36;2.57;;;1.90;;
11548;SDS011;61444;59.472;18.306;2023-11-19T05:16:49;2.53;;;1.97;;
11548;SDS011;61444;59.472;18.306;2023-11-19T05:19:01;3.17;;;2.00;;
11548;SDS011;61444;59.472;18.306;2023-11-19T05:21:13;1.70;;;1.60;;
11548;SDS011;61444;59.472;18.306;2023-11-19T05:23:24;2.10;;;1.70;;
11548;SDS011;61444;59.472;18.306;2023-11-19T05:25:40;2.67;;;1.60;;
11548;SDS011;61444;59.472;18.306;2023-11-19T05:27:50;2.07;;;1.60;;
11548;SDS011;61444;59.472;18.306;2023-11-19T05:29:59;2.27;;;1.73;;
11548;SDS011;61444;59.472;18.306;2023-11-19T05:32:10;3.43;;;1.80;;
11548;SDS011;61444;59.472;18.306;2023-11-19T05:34:23;3.07;;;2.23;;
11548;SDS011;61444;59.472;18.306;2023-11-19T05:36:32;2.70;;;2.00;;
11548;SDS011;61444;59.472;18.306;2023-11-19T05:38:42;2.70;;;2.00;;
11548;SDS011;61444;59.472;18.306;2023-11-19T05:40:52;1.83;;;1.40;;
11548;SDS011;61444;59.472;18.306;2023-11-19T05:43:03;2.57;;;1.80;;
11548;SDS011;61444;59.472;18.306;2023-11-19T05:45:14;1.83;;;1.50;;
11548;SDS011;61444;59.472;18.306;2023-11-19T05:47:26;1.70;;;1.53;;
11548;SDS011;61444;59.472;18.306;2023-11-19T05:49:35;1.70;;;1.40;;
11548;SDS011;61444;59.472;18.306;2023-11-19T05:51:45;1.83;;;1.60;;
11548;SDS011;61444;59.472;18.306;2023-11-19T05:53:54;2.00;;;1.60;;
11548;SDS011;61444;59.472;18.306;2023-11-19T05:56:06;1.73;;;1.60;;
11548;SDS011;61444;59.472;18.306;2023-11-19T05:58:20;1.90;;;1.50;;
11548;SDS011;61444;59.472;18.306;2023-11-19T06:00:33;1.77;;;1.40;;
11548;SDS011;61444;59.472;18.306;2023-11-19T06:02:50;3.47;;;1.60;;
11548;SDS011;61444;59.472;18.306;2023-11-19T06:05:05;2.03;;;1.47;;
11548;SDS011;61444;59.472;18.306;2023-11-19T06:07:22;2.33;;;1.57;;
11548;SDS011;61444;59.472;18.306;2023-11-19T06:09:32;1.73;;;1.20;;
11548;SDS011;61444;59.472;18.306;2023-11-19T06:11:42;2.23;;;1.70;;
11548;SDS011;61444;59.472;18.306;2023-11-19T06:13:55;2.43;;;1.50;;
11548;SDS011;61444;59.472;18.306;2023-11-19T06:16:08;2.77;;;1.70;;
11548;SDS011;61444;59.472;18.306;2023-11-19T06:18:26;2.07;;;1.77;;
11548;SDS011;61444;59.472;18.306;2023-11-19T06:20:40;2.27;;;1.80;;
11548;SDS011;61444;59.472;18.306;2023-11-19T06:22:50;2.33;;;1.90;;
11548;SDS011;61444;59.472;18.306;2023-11-19T06:25:00;3.87;;;1.83;;
11548;SDS011;61444;59.472;18.306;2023-11-19T06:27:15;4.83;;;2.03;;
11548;SDS011;61444;59.472;18.306;2023-11-19T06:29:24;2.43;;;1.80;;
11548;SDS011;61444;59.472;18.306;2023-11-19T06:31:40;1.73;;;1.43;;
11548;SDS011;61444;59.472;18.306;2023-11-19T06:33:53;2.37;;;1.73;;
11548;SDS011;61444;59.472;18.306;2023-11-19T06:36:04;2.20;;;1.80;;
11548;SDS011;61444;59.472;18.306;2023-11-19T06:38:18;2.50;;;1.70;;
11548;SDS011;61444;59.472;18.306;2023-11-19T06:40:27;2.87;;;2.00;;
11548;SDS011;61444;59.472;18.306;2023-11-19T06:42:37;3.43;;;1.90;;
11548;SDS011;61444;59.472;18.306;2023-11-19T06:44:46;2.90;;;2.20;;
11548;SDS011;61444;59.472;18.306;2023-11-19T06:46:57;3.83;;;2.23;;
11548;SDS011;61444;59.472;18.306;2023-11-19T06:49:08;2.50;;;1.80;;
11548;SDS011;61444;59.472;18.306;2023-11-19T06:51:20;2.53;;;1.87;;
11548;SDS011;61444;59.472;18.306;2023-11-19T06:53:32;3.13;;;2.50;;
11548;SDS011;61444;59.472;18.306;2023-11-19T06:55:41;3.77;;;2.20;;
11548;SDS011;61444;59.472;18.306;2023-11-19T06:57:52;4.70;;;2.77;;
11548;SDS011;61444;59.472;18.306;2023-11-19T07:00:01;3.53;;;2.80;;
11548;SDS011;61444;59.472;18.306;2023-11-19T07:02:14;5.13;;;3.33;;
11548;SDS011;61444;59.472;18.306;2023-11-19T07:04:27;4.90;;;3.07;;
11548;SDS011;61444;59.472;18.306;2023-11-19T07:06:36;4.30;;;3.17;;
11548;SDS011;61444;59.472;18.306;2023-11-19T07:08:50;4.93;;;2.80;;
11548;SDS011;61444;59.472;18.306;2023-11-19T07:11:00;4.13;;;2.70;;
11548;SDS011;61444;59.472;18.306;2023-11-19T07:13:10;4.43;;;3.03;;
11548;SDS011;61444;59.472;18.306;2023-11-19T07:15:22;7.23;;;4.03;;
11548;SDS011;61444;59.472;18.306;2023-11-19T07:17:33;5.47;;;3.83;;
11548;SDS011;61444;59.472;18.306;2023-11-19T07:19:46;3.97;;;3.10;;
11548;SDS011;61444;59.472;18.306;2023-11-19T07:22:07;5.43;;;2.20;;
11548;SDS011;61444;59.472;18.306;2023-11-19T07:24:20;3.47;;;2.60;;
11548;SDS011;61444;59.472;18.306;2023-11-19T07:26:31;3.60;;;2.60;;
11548;SDS011;61444;59.472;18.306;2023-11-19T07:28:42;3.40;;;2.50;;
11548;SDS011;61444;59.472;18.306;2023-11-19T07:30:53;3.20;;;2.03;;
11548;SDS011;61444;59.472;18.306;2023-11-19T07:33:07;4.23;;;2.47;;
11548;SDS011;61444;59.472;18.306;2023-11-19T07:35:19;4.17;;;2.70;;
11548;SDS011;61444;59.472;18.306;2023-11-19T07:37:30;5.17;;;2.80;;
11548;SDS011;61444;59.472;18.306;2023-11-19T07:39:39;6.63;;;3.90;;
11548;SDS011;61444;59.472;18.306;2023-11-19T07:41:49;3.67;;;2.83;;
11548;SDS011;61444;59.472;18.306;2023-11-19T07:43:59;3.20;;;2.40;;
11548;SDS011;61444;59.472;18.306;2023-11-19T07:46:10;3.80;;;2.50;;
11548;SDS011;61444;59.472;18.306;2023-11-19T07:48:21;6.73;;;3.53;;
11548;SDS011;61444;59.472;18.306;2023-11-19T07:50:34;9.07;;;4.87;;
11548;SDS011;61444;59.472;18.306;2023-11-19T07:52:46;8.10;;;4.00;;
11548;SDS011;61444;59.472;18.306;2023-11-19T07:54:56;6.53;;;3.60;;
11548;SDS011;61444;59.472;18.306;2023-11-19T07:57:06;3.17;;;2.40;;
11548;SDS011;61444;59.472;18.306;2023-11-19T07:59:16;4.83;;;2.57;;
11548;SDS011;61444;59.472;18.306;2023-11-19T08:01:26;2.87;;;2.00;;
11548;SDS011;61444;59.472;18.306;2023-11-19T08:03:37;3.67;;;2.70;;
11548;SDS011;61444;59.472;18.306;2023-11-19T08:06:06;5.20;;;3.13;;
11548;SDS011;61444;59.472;18.306;2023-11-19T08:08:18;4.77;;;3.70;;
11548;SDS011;61444;59.472;18.306;2023-11-19T08:10:30;5.13;;;3.33;;
11548;SDS011;61444;59.472;18.306;2023-11-19T08:12:40;4.37;;;3.30;;
11548;SDS011;61444;59.472;18.306;2023-11-19T08:14:51;4.87;;;3.13;;
11548;SDS011;61444;59.472;18.306;2023-11-19T08:17:03;3.80;;;2.93;;
11548;SDS011;61444;59.472;18.306;2023-11-19T08:19:14;10.23;;;3.17;;
11548;SDS011;61444;59.472;18.306;2023-11-19T08:21:25;4.93;;;3.03;;
11548;SDS011;61444;59.472;18.306;2023-11-19T08:23:40;3.10;;;2.40;;
11548;SDS011;61444;59.472;18.306;2023-11-19T08:25:50;3.43;;;2.60;;
11548;SDS011;61444;59.472;18.306;2023-11-19T08:27:58;4.30;;;2.60;;
11548;SDS011;61444;59.472;18.306;2023-11-19T08:30:09;4.87;;;2.80;;
11548;SDS011;61444;59.472;18.306;2023-11-19T08:32:24;4.37;;;2.90;;
11548;SDS011;61444;59.472;18.306;2023-11-19T08:34:35;5.57;;;2.90;;
11548;SDS011;61444;59.472;18.306;2023-11-19T08:36:46;5.17;;;3.10;;
11548;SDS011;61444;59.472;18.306;2023-11-19T08:39:02;4.10;;;3.00;;
11548;SDS011;61444;59.472;18.306;2023-11-19T08:41:11;4.23;;;2.93;;
11548;SDS011;61444;59.472;18.306;2023-11-19T08:43:25;4.10;;;3.27;;
11548;SDS011;61444;59.472;18.306;2023-11-19T08:45:39;3.90;;;2.63;;
11548;SDS011;61444;59.472;18.306;2023-11-19T08:47:51;4.93;;;2.97;;
11548;SDS011;61444;59.472;18.306;2023-11-19T08:50:07;5.03;;;2.93;;
11548;SDS011;61444;59.472;18.306;2023-11-19T08:52:19;3.17;;;2.60;;
11548;SDS011;61444;59.472;18.306;2023-11-19T08:54:32;4.47;;;2.23;;
11548;SDS011;61444;59.472;18.306;2023-11-19T08:56:44;3.10;;;1.80;;
11548;SDS011;61444;59.472;18.306;2023-11-19T08:58:54;3.73;;;2.37;;
11548;SDS011;61444;59.472;18.306;2023-11-19T09:01:04;3.63;;;2.97;;
11548;SDS011;61444;59.472;18.306;2023-11-19T09:03:13;4.33;;;2.83;;
11548;SDS011;61444;59.472;18.306;2023-11-19T09:05:21;5.27;;;3.17;;
11548;SDS011;61444;59.472;18.306;2023-11-19T09:07:34;3.00;;;2.70;;
11548;SDS011;61444;59.472;18.306;2023-11-19T09:09:43;4.23;;;3.00;;
11548;SDS011;61444;59.472;18.306;2023-11-19T09:11:53;4.50;;;3.40;;
11548;SDS011;61444;59.472;18.306;2023-11-19T09:14:03;5.97;;;3.10;;
11548;SDS011;61444;59.472;18.306;2023-11-19T09:16:13;4.00;;;3.40;;
11548;SDS011;61444;59.472;18.306;2023-11-19T09:18:23;4.57;;;3.53;;
11548;SDS011;61444;59.472;18.306;2023-11-19T09:20:34;4.07;;;3.27;;
11548;SDS011;61444;59.472;18.306;2023-11-19T09:22:51;5.23;;;3.27;;
11548;SDS011;61444;59.472;18.306;2023-11-19T09:25:07;5.47;;;3.00;;
11548;SDS011;61444;59.472;18.306;2023-11-19T09:27:17;3.20;;;2.77;;
11548;SDS011;61444;59.472;18.306;2023-11-19T09:29:27;3.83;;;2.60;;
11548;SDS011;61444;59.472;18.306;2023-11-19T09:31:37;3.70;;;2.90;;
11548;SDS011;61444;59.472;18.306;2023-11-19T09:33:46;5.03;;;2.70;;
11548;SDS011;61444;59.472;18.306;2023-11-19T09:35:56;4.40;;;2.60;;
11548;SDS011;61444;59.472;18.306;2023-11-19T09:38:07;4.87;;;2.60;;
11548;SDS011;61444;59.472;18.306;2023-11-19T09:40:21;3.90;;;2.13;;
11548;SDS011;61444;59.472;18.306;2023-11-19T09:42:30;2.70;;;2.03;;
11548;SDS011;61444;59.472;18.306;2023-11-19T09:44:42;2.90;;;2.13;;
11548;SDS011;61444;59.472;18.306;2023-11-19T09:46:52;2.77;;;2.07;;
11548;SDS011;61444;59.472;18.306;2023-11-19T09:49:01;3.57;;;2.10;;
11548;SDS011;61444;59.472;18.306;2023-11-19T09:51:13;3.33;;;2.23;;
11548;SDS011;61444;59.472;18.306;2023-11-19T09:53:24;4.53;;;2.67;;
11548;SDS011;61444;59.472;18.306;2023-11-19T09:55:39;3.07;;;2.10;;
11548;SDS011;61444;59.472;18.306;2023-11-19T09:57:49;3.40;;;2.00;;
11548;SDS011;61444;59.472;18.306;2023-11-19T09:59:59;3.00;;;2.10;;
11548;SDS011;61444;59.472;18.306;2023-11-19T10:02:11;4.20;;;2.43;;
11548;SDS011;61444;59.472;18.306;2023-11-19T10:04:23;6.37;;;2.50;;
11548;SDS011;61444;59.472;18.306;2023-11-19T10:06:33;2.97;;;2.20;;
11548;SDS011;61444;59.472;18.306;2023-11-19T10:08:44;2.73;;;2.07;;
11548;SDS011;61444;59.472;18.306;2023-11-19T10:10:54;3.73;;;2.10;;
11548;SDS011;61444;59.472;18.306;2023-11-19T10:13:06;2.63;;;1.70;;
11548;SDS011;61444;59.472;18.306;2023-11-19T10:15:19;2.83;;;2.10;;
11548;SDS011;61444;59.472;18.306;2023-11-19T10:17:33;2.33;;;1.87;;
11548;SDS011;61444;59.472;18.306;2023-11-19T10:19:43;3.20;;;2.37;;
11548;SDS011;61444;59.472;18.306;2023-11-19T10:21:52;3.73;;;2.33;;
11548;SDS011;61444;59.472;18.306;2023-11-19T10:24:08;3.40;;;2.27;;
11548;SDS011;61444;59.472;18.306;2023-11-19T10:26:18;5.13;;;3.73;;
11548;SDS011;61444;59.472;18.306;2023-11-19T10:28:27;3.53;;;2.80;;
11548;SDS011;61444;59.472;18.306;2023-11-19T10:30:37;2.80;;;2.27;;
11548;SDS011;61444;59.472;18.306;2023-11-19T10:32:46;3.03;;;2.20;;
11548;SDS011;61444;59.472;18.306;2023-11-19T10:35:11;2.80;;;2.40;;
11548;SDS011;61444;59.472;18.306;2023-11-19T10:37:29;3.43;;;2.30;;
11548;SDS011;61444;59.472;18.306;2023-11-19T10:42:17;4.03;;;2.83;;
11548;SDS011;61444;59.472;18.306;2023-11-19T10:44:32;4.23;;;2.50;;
11548;SDS011;61444;59.472;18.306;2023-11-19T10:46:43;3.83;;;2.27;;
11548;SDS011;61444;59.472;18.306;2023-11-19T10:48:54;3.43;;;2.47;;
11548;SDS011;61444;59.472;18.306;2023-11-19T10:51:04;3.20;;;2.50;;
11548;SDS011;61444;59.472;18.306;2023-11-19T10:53:15;4.03;;;2.40;;
11548;SDS011;61444;59.472;18.306;2023-11-19T10:55:27;2.87;;;2.37;;
11548;SDS011;61444;59.472;18.306;2023-11-19T10:57:39;2.60;;;2.07;;
11548;SDS011;61444;59.472;18.306;2023-11-19T10:59:49;4.50;;;2.37;;
11548;SDS011;61444;59.472;18.306;2023-11-19T11:02:07;4.93;;;2.90;;
11548;SDS011;61444;59.472;18.306;2023-11-19T11:04:22;4.77;;;2.70;;
11548;SDS011;61444;59.472;18.306;2023-11-19T11:06:34;5.93;;;2.00;;
11548;SDS011;61444;59.472;18.306;2023-11-19T11:08:44;4.07;;;2.63;;
11548;SDS011;61444;59.472;18.306;2023-11-19T11:10:55;3.80;;;2.43;;
11548;SDS011;61444;59.472;18.306;2023-11-19T11:13:08;3.73;;;2.70;;
11548;SDS011;61444;59.472;18.306;2023-11-19T11:15:19;4.57;;;2.80;;
11548;SDS011;61444;59.472;18.306;2023-11-19T11:17:28;5.60;;;2.43;;
11548;SDS011;61444;59.472;18.306;2023-11-19T11:19:41;3.13;;;2.30;;
11548;SDS011;61444;59.472;18.306;2023-11-19T11:21:52;4.03;;;2.67;;
11548;SDS011;61444;59.472;18.306;2023-11-19T11:24:12;3.27;;;2.53;;
11548;SDS011;61444;59.472;18.306;2023-11-19T11:26:40;3.47;;;2.30;;
11548;SDS011;61444;59.472;18.306;2023-11-19T11:28:57;4.00;;;2.40;;
11548;SDS011;61444;59.472;18.306;2023-11-19T11:31:20;3.70;;;2.70;;
11548;SDS011;61444;59.472;18.306;2023-11-19T11:33:36;3.17;;;2.37;;
11548;SDS011;61444;59.472;18.306;2023-11-19T11:35:52;4.00;;;2.40;;
11548;SDS011;61444;59.472;18.306;2023-11-19T11:38:06;3.20;;;2.17;;
11548;SDS011;61444;59.472;18.306;2023-11-19T11:40:15;3.10;;;2.00;;
11548;SDS011;61444;59.472;18.306;2023-11-19T11:42:32;4.10;;;1.97;;
11548;SDS011;61444;59.472;18.306;2023-11-19T11:47:19;3.73;;;1.87;;
11548;SDS011;61444;59.472;18.306;2023-11-19T11:49:36;3.23;;;2.33;;
11548;SDS011;61444;59.472;18.306;2023-11-19T11:51:58;3.40;;;2.10;;
11548;SDS011;61444;59.472;18.306;2023-11-19T11:54:07;3.77;;;2.40;;
11548;SDS011;61444;59.472;18.306;2023-11-19T11:56:18;2.37;;;1.80;;
11548;SDS011;61444;59.472;18.306;2023-11-19T11:58:34;3.07;;;1.80;;
11548;SDS011;61444;59.472;18.306;2023-11-19T12:01:00;2.07;;;1.77;;
11548;SDS011;61444;59.472;18.306;2023-11-19T12:03:11;2.80;;;2.00;;
11548;SDS011;61444;59.472;18.306;2023-11-19T12:05:19;2.50;;;1.93;;
11548;SDS011;61444;59.472;18.306;2023-11-19T12:07:30;2.10;;;1.87;;
11548;SDS011;61444;59.472;18.306;2023-11-19T12:09:45;3.57;;;2.40;;
11548;SDS011;61444;59.472;18.306;2023-11-19T12:12:18;3.50;;;2.03;;
11548;SDS011;61444;59.472;18.306;2023-11-19T12:16:53;3.13;;;2.20;;
11548;SDS011;61444;59.472;18.306;2023-11-19T12:19:04;3.47;;;2.10;;
11548;SDS011;61444;59.472;18.306;2023-11-19T12:21:27;3.97;;;2.43;;
11548;SDS011;61444;59.472;18.306;2023-11-19T12:23:44;4.33;;;2.43;;
11548;SDS011;61444;59.472;18.306;2023-11-19T12:25:57;3.97;;;2.10;;
11548;SDS011;61444;59.472;18.306;2023-11-19T12:28:11;4.00;;;1.97;;
11548;SDS011;61444;59.472;18.306;2023-11-19T12:30:21;3.87;;;2.63;;
11548;SDS011;61444;59.472;18.306;2023-11-19T12:32:40;4.97;;;3.40;;
11548;SDS011;61444;59.472;18.306;2023-11-19T12:34:53;4.20;;;2.90;;
11548;SDS011;61444;59.472;18.306;2023-11-19T12:37:03;4.03;;;2.37;;
11548;SDS011;61444;59.472;18.306;2023-11-19T12:39:12;3.37;;;2.30;;
11548;SDS011;61444;59.472;18.306;2023-11-19T12:41:25;2.40;;;1.73;;
11548;SDS011;61444;59.472;18.306;2023-11-19T12:43:35;2.07;;;1.87;;
11548;SDS011;61444;59.472;18.306;2023-11-19T12:45:49;3.43;;;2.17;;
11548;SDS011;61444;59.472;18.306;2023-11-19T12:48:04;2.23;;;1.70;;
11548;SDS011;61444;59.472;18.306;2023-11-19T12:50:20;2.70;;;1.83;;
11548;SDS011;61444;59.472;18.306;2023-11-19T12:52:30;2.47;;;2.00;;
11548;SDS011;61444;59.472;18.306;2023-11-19T12:54:38;3.20;;;2.00;;
11548;SDS011;61444;59.472;18.306;2023-11-19T12:56:51;3.53;;;1.90;;
11548;SDS011;61444;59.472;18.306;2023-11-19T12:59:11;3.87;;;1.77;;
11548;SDS011;61444;59.472;18.306;2023-11-19T13:01:20;3.03;;;1.90;;
11548;SDS011;61444;59.472;18.306;2023-11-19T13:03:30;3.83;;;2.20;;
11548;SDS011;61444;59.472;18.306;2023-11-19T13:05:45;4.47;;;2.60;;
11548;SDS011;61444;59.472;18.306;2023-11-19T13:07:59;3.10;;;2.23;;
11548;SDS011;61444;59.472;18.306;2023-11-19T13:10:11;3.80;;;2.87;;